createdAt,value
2023-02-22T00:01:35.638Z,13.52
2023-02-22T00:04:04.756Z,13.24
2023-02-22T00:06:31.427Z,13.22
2023-02-22T00:08:59.002Z,13.19
2023-02-22T00:11:26.553Z,12.49
2023-02-22T00:13:57.311Z,11.23
2023-02-22T00:16:25.982Z,10.24
2023-02-22T00:18:53.326Z,11.13
2023-02-22T00:21:23.024Z,11.98
2023-02-22T00:23:50.192Z,12.23
2023-02-22T00:26:20.493Z,12.53
2023-02-22T00:28:49.150Z,12.64
2023-02-22T00:31:16.337Z,12.56
2023-02-22T00:33:43.451Z,12.61
2023-02-22T00:36:11.896Z,12.63
2023-02-22T00:38:39.482Z,12.50
2023-02-22T00:41:07.321Z,12.47
2023-02-22T00:43:34.305Z,12.59
2023-02-22T00:46:01.153Z,12.49
2023-02-22T00:48:28.367Z,12.44
2023-02-22T00:50:57.767Z,12.34
2023-02-22T00:53:25.545Z,12.55
2023-02-22T00:55:53.134Z,12.63
2023-02-22T00:58:20.750Z,12.80
2023-02-22T01:00:48.937Z,12.76
2023-02-22T01:03:18.705Z,12.87
2023-02-22T01:05:45.897Z,12.85
2023-02-22T01:08:14.683Z,12.78
2023-02-22T01:10:41.711Z,12.70
2023-02-22T01:13:09.688Z,12.58
2023-02-22T01:15:38.191Z,12.55
2023-02-22T01:18:05.492Z,12.59
2023-02-22T01:20:32.845Z,12.48
2023-02-22T01:23:03.487Z,12.39
2023-02-22T01:25:31.834Z,12.50
2023-02-22T01:28:00.926Z,12.51
2023-02-22T01:30:31.162Z,12.43
2023-02-22T01:32:58.192Z,12.49
2023-02-22T01:35:28.527Z,12.58
2023-02-22T01:37:56.323Z,12.58
2023-02-22T01:40:30.637Z,12.23
2023-02-22T01:43:01.150Z,12.03
2023-02-22T01:45:30.749Z,12.40
2023-02-22T01:48:19.853Z,12.43
2023-02-22T01:51:11.330Z,12.29
2023-02-22T01:53:47.593Z,12.22
2023-02-22T01:56:15.336Z,12.16
2023-02-22T01:58:46.519Z,12.34
2023-02-22T02:01:14.691Z,12.18
2023-02-22T02:03:42.339Z,12.35
2023-02-22T02:06:14.338Z,12.21
2023-02-22T02:08:49.738Z,12.19
2023-02-22T02:11:20.149Z,12.24
2023-02-22T02:13:49.735Z,12.19
2023-02-22T02:16:16.454Z,12.10
2023-02-22T02:18:43.228Z,11.70
2023-02-22T02:21:16.058Z,11.68
2023-02-22T02:24:00.828Z,11.62
2023-02-22T02:26:47.360Z,11.45
2023-02-22T02:29:36.875Z,11.62
2023-02-22T02:32:06.594Z,11.39
2023-02-22T02:34:39.820Z,11.61
2023-02-22T02:37:12.309Z,11.46
2023-02-22T02:40:06.535Z,11.40
2023-02-22T02:42:43.553Z,11.22
2023-02-22T02:45:19.244Z,11.18
2023-02-22T02:47:52.250Z,11.24
2023-02-22T02:50:24.770Z,10.32
2023-02-22T02:52:55.515Z,10.56
2023-02-22T02:55:22.609Z,10.80
2023-02-22T02:57:49.157Z,10.81
2023-02-22T03:00:25.063Z,10.88
2023-02-22T03:03:00.787Z,10.95
2023-02-22T03:05:39.312Z,11.08
2023-02-22T03:08:18.127Z,11.10
2023-02-22T03:11:15.429Z,10.75
2023-02-22T03:14:04.224Z,10.85
2023-02-22T03:16:52.823Z,10.98
2023-02-22T03:19:40.649Z,11.06
2023-02-22T03:22:33.650Z,10.96
2023-02-22T03:25:02.181Z,11.10
2023-02-22T03:27:38.055Z,11.06
2023-02-22T03:30:29.262Z,11.01
2023-02-22T03:33:09.170Z,10.83
2023-02-22T03:35:41.334Z,10.95
2023-02-22T03:38:11.409Z,10.97
2023-02-22T03:40:43.468Z,10.96
2023-02-22T03:43:25.093Z,10.94
2023-02-22T03:45:52.182Z,11.07
2023-02-22T03:48:31.434Z,10.90
2023-02-22T03:50:58.549Z,11.05
2023-02-22T03:53:25.626Z,11.25
2023-02-22T03:55:55.594Z,11.27
2023-02-22T03:58:25.155Z,11.33
2023-02-22T04:00:53.438Z,11.32
2023-02-22T04:03:21.292Z,11.24
2023-02-22T04:05:48.568Z,11.28
2023-02-22T04:08:15.588Z,11.24
2023-02-22T04:10:42.479Z,11.19
2023-02-22T04:13:10.330Z,11.31
2023-02-22T04:15:37.283Z,11.28
2023-02-22T04:18:04.315Z,11.31
2023-02-22T04:20:31.812Z,11.32
2023-02-22T04:22:58.464Z,11.27
2023-02-22T04:25:25.061Z,11.32
2023-02-22T04:27:52.157Z,11.29
2023-02-22T04:30:19.714Z,11.25
2023-02-22T04:32:46.394Z,11.32
2023-02-22T04:35:12.992Z,11.23
2023-02-22T04:37:39.631Z,11.00
2023-02-22T04:40:11.564Z,10.93
2023-02-22T04:42:39.008Z,10.87
2023-02-22T04:45:08.124Z,10.57
2023-02-22T04:47:36.102Z,10.48
2023-02-22T04:50:03.906Z,10.52
2023-02-22T04:52:30.560Z,10.66
2023-02-22T04:54:57.166Z,10.57
2023-02-22T04:57:24.040Z,10.60
2023-02-22T04:59:51.355Z,10.57
2023-02-22T05:02:18.745Z,10.61
2023-02-22T05:04:45.647Z,10.56
2023-02-22T05:07:12.434Z,9.08
2023-02-22T05:09:39.163Z,9.41
2023-02-22T05:12:06.069Z,9.26
2023-02-22T05:14:33.042Z,9.72
2023-02-22T05:17:00.724Z,9.87
2023-02-22T05:19:27.342Z,10.15
2023-02-22T05:21:54.149Z,10.16
2023-02-22T05:24:20.805Z,10.20
2023-02-22T05:26:47.425Z,9.76
2023-02-22T05:29:14.514Z,9.84
2023-02-22T05:31:42.068Z,9.75
2023-02-22T05:34:09.153Z,10.00
2023-02-22T05:36:35.878Z,9.98
2023-02-22T05:39:03.982Z,9.88
2023-02-22T05:41:30.618Z,9.76
2023-02-22T05:43:59.178Z,9.75
2023-02-22T05:46:25.849Z,9.88
2023-02-22T05:48:52.559Z,9.89
2023-02-22T05:51:19.755Z,9.67
2023-02-22T05:53:46.444Z,10.05
2023-02-22T05:56:13.019Z,10.04
2023-02-22T05:58:39.631Z,10.26
2023-02-22T06:01:06.283Z,10.22
2023-02-22T06:03:36.306Z,10.26
2023-02-22T06:06:03.194Z,10.27
2023-02-22T06:08:31.206Z,10.19
2023-02-22T06:10:58.699Z,10.01
2023-02-22T06:13:25.801Z,10.18
2023-02-22T06:15:52.774Z,10.15
2023-02-22T06:18:19.410Z,10.16
2023-02-22T06:21:00.055Z,10.26
2023-02-22T06:23:27.374Z,10.06
2023-02-22T06:25:54.070Z,10.27
2023-02-22T06:28:20.741Z,10.13
2023-02-22T06:30:47.560Z,10.23
2023-02-22T06:33:14.195Z,10.28
2023-02-22T06:35:40.903Z,10.34
2023-02-22T06:38:07.589Z,10.36
2023-02-22T06:40:34.203Z,10.41
2023-02-22T06:43:00.870Z,10.45
2023-02-22T06:45:27.609Z,10.24
2023-02-22T06:47:54.490Z,10.31
2023-02-22T06:50:29.015Z,10.37
2023-02-22T06:52:56.846Z,10.54
2023-02-22T06:55:26.127Z,10.21
2023-02-22T06:57:53.016Z,9.96
2023-02-22T07:00:21.996Z,10.14
2023-02-22T07:02:49.021Z,10.00
2023-02-22T07:05:17.221Z,10.00
2023-02-22T07:07:43.783Z,9.34
2023-02-22T07:10:22.351Z,10.03
2023-02-22T07:12:49.242Z,10.15
2023-02-22T07:15:18.264Z,10.54
2023-02-22T07:17:45.167Z,10.76
2023-02-22T07:20:11.899Z,10.91
2023-02-22T07:22:39.350Z,11.12
2023-02-22T07:25:10.040Z,11.03
2023-02-22T07:27:38.321Z,10.39
2023-02-22T07:30:07.345Z,11.06
2023-02-22T07:32:34.041Z,10.78
2023-02-22T07:35:02.980Z,11.08
2023-02-22T07:37:30.336Z,11.47
2023-02-22T07:39:56.958Z,11.51
2023-02-22T07:42:23.848Z,11.62
2023-02-22T07:44:50.421Z,11.91
2023-02-22T07:47:17.068Z,11.93
2023-02-22T07:49:43.669Z,12.20
2023-02-22T07:52:10.324Z,12.17
2023-02-22T07:54:36.965Z,12.22
2023-02-22T07:57:03.728Z,12.35
2023-02-22T07:59:30.363Z,12.04
2023-02-22T08:01:56.998Z,12.49
2023-02-22T08:04:23.693Z,12.57
2023-02-22T08:06:50.450Z,12.42
2023-02-22T08:09:17.084Z,12.60
2023-02-22T08:11:43.710Z,12.66
2023-02-22T08:14:10.294Z,12.41
2023-02-22T08:16:36.951Z,11.94
2023-02-22T08:19:03.544Z,11.98
2023-02-22T08:21:30.502Z,12.78
2023-02-22T08:23:57.145Z,13.05
2023-02-22T08:26:25.439Z,12.37
2023-02-22T08:28:52.179Z,12.79
2023-02-22T08:31:19.243Z,13.14
2023-02-22T08:33:50.036Z,13.11
2023-02-22T08:36:17.657Z,13.43
2023-02-22T08:38:44.308Z,13.53
2023-02-22T08:41:11.024Z,13.27
2023-02-22T08:43:37.678Z,13.64
2023-02-22T08:46:04.575Z,13.88
2023-02-22T08:48:31.288Z,13.93
2023-02-22T08:50:58.135Z,13.59
2023-02-22T08:53:24.785Z,13.80
2023-02-22T08:55:51.487Z,14.05
2023-02-22T08:58:18.142Z,14.02
2023-02-22T09:00:45.186Z,14.30
2023-02-22T09:03:14.181Z,14.03
2023-02-22T09:05:42.178Z,14.44
2023-02-22T09:08:08.949Z,14.45
2023-02-22T09:10:36.238Z,14.67
2023-02-22T09:13:04.143Z,14.58
2023-02-22T09:15:32.122Z,14.43
2023-02-22T09:17:59.680Z,13.70
2023-02-22T09:20:27.538Z,14.05
2023-02-22T09:22:55.338Z,14.40
2023-02-22T09:25:23.484Z,14.33
2023-02-22T09:27:52.276Z,13.62
2023-02-22T09:30:24.739Z,13.54
2023-02-22T09:32:57.837Z,14.19
2023-02-22T09:35:27.408Z,14.69
2023-02-22T09:38:00.213Z,14.28
2023-02-22T09:40:30.648Z,14.35
2023-02-22T09:43:17.991Z,14.25
2023-02-22T09:46:05.927Z,14.53
2023-02-22T09:48:36.476Z,14.22
2023-02-22T09:51:11.840Z,14.70
2023-02-22T09:53:44.181Z,14.85
2023-02-22T09:56:18.330Z,15.00
2023-02-22T09:58:48.806Z,14.63
2023-02-22T10:01:45.216Z,14.90
2023-02-22T10:04:22.172Z,15.25
2023-02-22T10:06:57.673Z,15.25
2023-02-22T10:09:29.277Z,15.19
2023-02-22T10:12:02.806Z,15.11
2023-02-22T10:14:35.154Z,15.33
2023-02-22T10:17:33.438Z,15.45
2023-02-22T10:20:18.895Z,15.47
2023-02-22T10:23:04.660Z,15.41
2023-02-22T10:25:36.599Z,15.12
2023-02-22T10:28:15.876Z,15.64
2023-02-22T10:30:54.743Z,15.57
2023-02-22T10:33:29.815Z,15.96
2023-02-22T10:35:56.509Z,16.05
2023-02-22T10:38:26.723Z,15.98
2023-02-22T10:40:59.837Z,15.68
2023-02-22T10:43:26.933Z,15.38
2023-02-22T10:45:58.297Z,15.52
2023-02-22T10:48:26.634Z,15.50
2023-02-22T10:50:58.526Z,15.68
2023-02-22T10:53:27.648Z,15.64
2023-02-22T10:56:13.134Z,16.11
2023-02-22T10:58:51.887Z,16.04
2023-02-22T11:01:32.600Z,16.23
2023-02-22T11:04:10.541Z,15.94
2023-02-22T11:06:39.670Z,15.91
2023-02-22T11:09:10.408Z,16.21
2023-02-22T11:11:39.883Z,16.13
2023-02-22T11:14:07.494Z,16.71
2023-02-22T11:16:40.771Z,16.48
2023-02-22T11:19:16.288Z,16.77
2023-02-22T11:21:44.025Z,16.71
2023-02-22T11:24:13.863Z,16.69
2023-02-22T11:26:49.208Z,16.51
2023-02-22T11:29:22.759Z,16.61
2023-02-22T11:31:49.819Z,16.58
2023-02-22T11:34:45.919Z,16.46
2023-02-22T11:37:34.644Z,16.83
2023-02-22T11:40:21.470Z,16.36
2023-02-22T11:43:12.379Z,16.33
2023-02-22T11:45:44.149Z,16.50
2023-02-22T11:48:21.098Z,16.81
2023-02-22T11:50:56.510Z,16.92
2023-02-22T11:53:47.988Z,17.20
2023-02-22T11:56:36.950Z,16.71
2023-02-22T11:59:21.682Z,16.39
2023-02-22T12:01:48.211Z,16.60
2023-02-22T12:04:53.601Z,16.30
2023-02-22T12:07:44.632Z,16.54
2023-02-22T12:10:27.707Z,17.07
2023-02-22T12:13:13.609Z,17.60
2023-02-22T12:16:01.499Z,17.02
2023-02-22T12:18:59.203Z,16.71
2023-02-22T12:21:30.273Z,16.83
2023-02-22T12:24:07.260Z,17.29
2023-02-22T12:26:41.515Z,17.14
2023-02-22T12:29:29.537Z,16.96
2023-02-22T12:32:22.302Z,16.32
2023-02-22T12:34:56.087Z,17.04
2023-02-22T12:37:28.157Z,17.01
2023-02-22T12:40:14.942Z,17.24
2023-02-22T12:42:52.169Z,17.38
2023-02-22T12:45:30.870Z,17.27
2023-02-22T12:48:18.633Z,17.17
2023-02-22T12:50:54.113Z,17.40
2023-02-22T12:53:38.284Z,17.50
2023-02-22T12:56:37.247Z,17.43
2023-02-22T12:59:23.118Z,17.15
2023-02-22T13:01:58.411Z,16.96
2023-02-22T13:04:27.736Z,16.85
2023-02-22T13:07:10.224Z,17.13
2023-02-22T13:09:43.050Z,16.90
2023-02-22T13:12:12.649Z,17.16
2023-02-22T13:14:51.400Z,16.67
2023-02-22T13:18:04.885Z,16.78
2023-02-22T13:21:09.392Z,16.78
2023-02-22T13:24:11.189Z,17.20
2023-02-22T13:26:54.342Z,17.61
2023-02-22T13:29:28.846Z,16.65
2023-02-22T13:32:29.087Z,16.70
2023-02-22T13:34:56.834Z,17.52
2023-02-22T13:37:54.956Z,16.86
2023-02-22T13:40:36.625Z,17.22
2023-02-22T13:43:09.302Z,17.28
2023-02-22T13:45:36.609Z,17.59
2023-02-22T13:48:13.370Z,17.49
2023-02-22T13:50:58.074Z,17.48
2023-02-22T13:53:29.445Z,17.54
2023-02-22T13:55:59.276Z,16.80
2023-02-22T13:58:26.121Z,17.52
2023-02-22T14:00:58.595Z,17.37
2023-02-22T14:03:34.324Z,17.38
2023-02-22T14:06:01.870Z,17.56
2023-02-22T14:08:28.889Z,17.18
2023-02-22T14:10:57.685Z,17.07
2023-02-22T14:13:29.268Z,17.22
2023-02-22T14:16:00.015Z,17.17
2023-02-22T14:18:36.000Z,17.48
2023-02-22T14:21:13.492Z,17.18
2023-02-22T14:23:42.231Z,17.29
2023-02-22T14:26:42.678Z,17.46
2023-02-22T14:29:12.754Z,17.05
2023-02-22T14:31:44.959Z,16.99
2023-02-22T14:34:17.558Z,17.29
2023-02-22T14:37:01.117Z,17.16
2023-02-22T14:39:43.575Z,17.27
2023-02-22T14:42:31.464Z,17.37
2023-02-22T14:45:03.176Z,17.09
2023-02-22T14:47:39.910Z,16.91
2023-02-22T14:50:23.182Z,16.72
2023-02-22T14:53:01.199Z,16.95
2023-02-22T14:55:31.499Z,16.70
2023-02-22T14:58:18.779Z,16.91
2023-02-22T15:00:47.809Z,17.02
2023-02-22T15:03:37.543Z,17.25
2023-02-22T15:06:22.034Z,16.93
2023-02-22T15:09:04.464Z,17.26
2023-02-22T15:11:34.624Z,17.36
2023-02-22T15:14:02.619Z,16.77
2023-02-22T15:16:34.247Z,16.73
2023-02-22T15:19:07.873Z,16.38
2023-02-22T15:21:35.574Z,16.65
2023-02-22T15:24:07.813Z,16.66
2023-02-22T15:27:00.279Z,17.00
2023-02-22T15:29:40.165Z,16.21
2023-02-22T15:32:56.995Z,16.17
2023-02-22T15:35:31.806Z,15.99
2023-02-22T15:38:20.171Z,16.40
2023-02-22T15:40:50.696Z,16.38
2023-02-22T15:43:24.410Z,16.82
2023-02-22T15:45:52.285Z,16.85
2023-02-22T15:48:19.422Z,17.03
2023-02-22T15:51:19.982Z,16.71
2023-02-22T15:53:48.659Z,16.75
2023-02-22T15:56:19.184Z,16.51
2023-02-22T15:58:47.659Z,16.68
2023-02-22T16:01:18.939Z,16.63
2023-02-22T16:03:53.173Z,16.58
2023-02-22T16:06:36.016Z,15.95
2023-02-22T16:09:30.375Z,16.14
2023-02-22T16:12:21.397Z,16.13
2023-02-22T16:14:52.557Z,16.26
2023-02-22T16:17:25.464Z,16.14
2023-02-22T16:19:53.172Z,15.97
2023-02-22T16:22:35.756Z,15.96
2023-02-22T16:25:27.234Z,16.07
2023-02-22T16:27:58.026Z,15.93
2023-02-22T16:30:39.991Z,15.98
2023-02-22T16:33:13.474Z,15.78
2023-02-22T16:35:40.564Z,15.89
2023-02-22T16:38:16.940Z,15.54
2023-02-22T16:40:55.502Z,15.69
2023-02-22T16:43:24.572Z,15.76
2023-02-22T16:45:52.987Z,15.63
2023-02-22T16:48:21.364Z,15.67
2023-02-22T16:50:51.200Z,15.57
2023-02-22T16:53:21.087Z,15.51
2023-02-22T16:55:48.927Z,15.47
2023-02-22T16:58:18.222Z,15.43
2023-02-22T17:00:45.004Z,15.64
2023-02-22T17:03:17.609Z,15.44
2023-02-22T17:05:44.778Z,15.29
2023-02-22T17:08:11.431Z,15.25
2023-02-22T17:10:38.307Z,15.30
2023-02-22T17:13:21.785Z,15.14
2023-02-22T17:15:49.799Z,14.98
2023-02-22T17:18:22.548Z,15.27
2023-02-22T17:20:51.020Z,15.24
2023-02-22T17:23:18.179Z,15.26
2023-02-22T17:26:05.141Z,15.01
2023-02-22T17:28:32.194Z,15.20
2023-02-22T17:31:02.985Z,14.81
2023-02-22T17:33:33.045Z,14.99
2023-02-22T17:36:02.185Z,15.12
2023-02-22T17:38:30.391Z,15.00
2023-02-22T17:40:58.884Z,15.23
2023-02-22T17:43:27.871Z,15.19
2023-02-22T17:45:55.052Z,15.30
2023-02-22T17:48:23.984Z,14.85
2023-02-22T17:50:51.485Z,14.87
2023-02-22T17:53:21.866Z,15.08
2023-02-22T17:55:49.364Z,15.12
2023-02-22T17:58:16.424Z,15.10
2023-02-22T18:00:46.668Z,14.94
2023-02-22T18:03:21.135Z,15.04
2023-02-22T18:05:49.847Z,15.15
2023-02-22T18:08:16.496Z,15.17
2023-02-22T18:10:43.837Z,15.11
2023-02-22T18:13:16.828Z,15.03
2023-02-22T18:15:44.062Z,15.00
2023-02-22T18:18:11.431Z,14.91
2023-02-22T18:20:43.880Z,14.96
2023-02-22T18:23:19.785Z,14.91
2023-02-22T18:26:07.686Z,15.01
2023-02-22T18:28:36.466Z,14.73
2023-02-22T18:31:10.133Z,14.67
2023-02-22T18:33:37.218Z,14.65
2023-02-22T18:36:04.647Z,14.56
2023-02-22T18:38:31.339Z,14.59
2023-02-22T18:41:06.699Z,14.45
2023-02-22T18:43:40.498Z,14.45
2023-02-22T18:46:16.181Z,14.44
2023-02-22T18:48:43.903Z,14.55
2023-02-22T18:51:13.302Z,14.44
2023-02-22T18:53:46.621Z,14.26
2023-02-22T18:56:21.989Z,14.26
2023-02-22T18:58:53.589Z,14.14
2023-02-22T19:01:20.713Z,14.26
2023-02-22T19:03:47.888Z,14.35
2023-02-22T19:06:15.737Z,14.32
2023-02-22T19:08:44.104Z,14.28
2023-02-22T19:11:17.874Z,14.26
2023-02-22T19:13:48.975Z,14.29
2023-02-22T19:16:19.860Z,14.21
2023-02-22T19:18:53.286Z,14.20
2023-02-22T19:21:21.110Z,14.15
2023-02-22T19:23:49.251Z,14.09
2023-02-22T19:26:24.088Z,13.97
2023-02-22T19:28:52.869Z,13.91
2023-02-22T19:31:25.954Z,13.92
2023-02-22T19:33:52.997Z,13.98
2023-02-22T19:36:23.149Z,14.07
2023-02-22T19:38:49.957Z,13.88
2023-02-22T19:41:20.280Z,13.87
2023-02-22T19:43:48.829Z,13.78
2023-02-22T19:46:21.178Z,13.84
2023-02-22T19:48:49.332Z,13.71
2023-02-22T19:51:17.632Z,13.54
2023-02-22T19:53:45.484Z,13.37
2023-02-22T19:56:18.924Z,13.19
2023-02-22T19:58:48.390Z,13.20
2023-02-22T20:01:23.247Z,13.28
2023-02-22T20:03:54.432Z,13.44
2023-02-22T20:06:28.095Z,13.15
2023-02-22T20:08:55.887Z,13.22
2023-02-22T20:11:23.565Z,13.29
2023-02-22T20:13:50.684Z,13.37
2023-02-22T20:16:17.314Z,13.34
2023-02-22T20:18:45.385Z,13.46
2023-02-22T20:21:20.214Z,12.90
2023-02-22T20:23:47.262Z,13.12
2023-02-22T20:26:24.312Z,13.25
2023-02-22T20:28:52.297Z,13.33
2023-02-22T20:31:20.258Z,13.29
2023-02-22T20:33:49.589Z,13.21
2023-02-22T20:36:18.574Z,13.08
2023-02-22T20:38:45.650Z,13.03
2023-02-22T20:41:15.271Z,13.00
2023-02-22T20:43:42.081Z,12.99
2023-02-22T20:46:08.778Z,13.00
2023-02-22T20:48:35.460Z,13.07
2023-02-22T20:51:06.844Z,13.04
2023-02-22T20:53:34.512Z,12.77
2023-02-22T20:56:01.812Z,12.82
2023-02-22T20:58:29.318Z,12.88
2023-02-22T21:00:55.916Z,12.83
2023-02-22T21:03:22.724Z,12.81
2023-02-22T21:05:49.368Z,12.71
2023-02-22T21:08:15.931Z,12.71
2023-02-22T21:10:44.324Z,12.77
2023-02-22T21:13:11.635Z,12.64
2023-02-22T21:15:43.450Z,12.74
2023-02-22T21:18:11.211Z,12.70
2023-02-22T21:20:40.763Z,12.61
2023-02-22T21:23:08.306Z,12.58
2023-02-22T21:25:34.983Z,12.64
2023-02-22T21:28:01.931Z,12.60
2023-02-22T21:30:29.518Z,12.53
2023-02-22T21:32:56.194Z,12.24
2023-02-22T21:35:24.615Z,12.45
2023-02-22T21:37:52.554Z,12.43
2023-02-22T21:40:19.676Z,12.44
2023-02-22T21:42:48.134Z,12.44
2023-02-22T21:45:20.713Z,12.41
2023-02-22T21:47:49.020Z,12.42
2023-02-22T21:50:19.596Z,12.34
2023-02-22T21:52:47.849Z,12.34
2023-02-22T21:55:15.051Z,12.31
2023-02-22T21:57:42.960Z,12.39
2023-02-22T22:00:18.403Z,12.22
2023-02-22T22:02:46.290Z,12.30
2023-02-22T22:05:18.147Z,12.28
2023-02-22T22:07:44.755Z,12.27
2023-02-22T22:10:17.053Z,12.33
2023-02-22T22:12:46.248Z,12.29
2023-02-22T22:15:17.667Z,12.25
2023-02-22T22:17:45.131Z,12.27
2023-02-22T22:20:16.618Z,12.28
2023-02-22T22:22:46.095Z,12.21
2023-02-22T22:25:17.167Z,12.09
2023-02-22T22:27:44.245Z,12.08
2023-02-22T22:30:11.956Z,12.13
2023-02-22T22:32:39.050Z,12.10
2023-02-22T22:35:09.526Z,12.16
2023-02-22T22:37:36.126Z,12.14
2023-02-22T22:40:05.046Z,12.09
2023-02-22T22:42:31.641Z,11.96
2023-02-22T22:44:58.260Z,12.07
2023-02-22T22:47:24.901Z,11.93
2023-02-22T22:49:52.933Z,11.92
2023-02-22T22:52:19.620Z,11.91
2023-02-22T22:54:46.223Z,11.88
2023-02-22T22:57:13.700Z,11.91
2023-02-22T22:59:40.317Z,11.95
2023-02-22T23:02:10.933Z,11.96
2023-02-22T23:04:38.093Z,12.00
2023-02-22T23:07:06.634Z,12.00
2023-02-22T23:09:35.060Z,11.93
2023-02-22T23:12:15.093Z,11.87
2023-02-22T23:14:46.087Z,11.75
2023-02-22T23:17:31.106Z,11.80
2023-02-22T23:19:58.005Z,11.83
2023-02-22T23:22:24.777Z,11.78
2023-02-22T23:24:51.383Z,11.76
2023-02-22T23:27:19.046Z,11.72
2023-02-22T23:29:46.882Z,11.62
2023-02-22T23:32:14.365Z,11.70
2023-02-22T23:34:41.615Z,11.55
2023-02-22T23:37:10.442Z,11.60
2023-02-22T23:39:37.846Z,11.60
2023-02-22T23:42:04.736Z,11.62
2023-02-22T23:44:31.534Z,11.65
2023-02-22T23:46:58.222Z,11.44
2023-02-22T23:49:38.032Z,11.33
2023-02-22T23:52:06.363Z,11.27
2023-02-22T23:54:36.612Z,11.04
2023-02-22T23:57:04.604Z,10.93
2023-02-22T23:59:32.763Z,11.16
